Terminal Aerodrome Forecast
Issued by NWS Rapid City, SD

Home | Current Version | Previous Version | Text Only | Print | Product List | Glossary Off
Versions: 1 2 3 4 5 6 7 8 9 10 11 12 13 14 15

434
FTUS43 KUNR 191725
TAFRAP
TAF
KRAP 191725Z 1918/2018 36010KT P6SM SCT100
     FM192200 36010KT P6SM VCSH BKN100
     FM200300 34013G23KT P6SM SCT150=

USA.gov is the U.S. government's official web portal to all federal, state and local government web resources and services.